TimeEDT,TemperatureF,Dew PointF,Humidity,Sea Level PressureIn,VisibilityMPH,Wind Direction,Wind SpeedMPH,Gust SpeedMPH,PrecipitationIn,Events,Conditions,WindDirDegrees,DateUTC
12:15 AM,77.9,72.1,82,29.78,10.0,Calm,Calm,-,N/A,,Clear,0,2013-06-30 04:15:00
12:35 AM,77.7,72.1,83,29.79,10.0,SSW,3.5,-,N/A,,Clear,200,2013-06-30 04:35:00
12:55 AM,77.5,72.1,83,29.79,10.0,Calm,Calm,-,N/A,,Mostly Cloudy,0,2013-06-30 04:55:00
1:15 AM,77.5,72.1,83,29.78,10.0,SSW,3.5,-,N/A,,Overcast,210,2013-06-30 05:15:00
1:35 AM,77.4,72.5,85,29.78,10.0,Calm,Calm,-,N/A,,Mostly Cloudy,0,2013-06-30 05:35:00
1:55 AM,77.0,72.1,85,29.77,10.0,Calm,Calm,-,N/A,,Scattered Clouds,0,2013-06-30 05:55:00
2:15 AM,76.6,72.5,87,29.77,10.0,Calm,Calm,-,N/A,,Scattered Clouds,0,2013-06-30 06:15:00
2:35 AM,76.6,72.5,87,29.76,10.0,SSW,3.5,-,N/A,,Scattered Clouds,210,2013-06-30 06:35:00
2:55 AM,76.6,72.5,87,29.76,10.0,Calm,Calm,-,N/A,,Clear,0,2013-06-30 06:55:00
3:15 AM,76.5,72.5,87,29.75,10.0,SSW,3.5,-,N/A,,Clear,200,2013-06-30 07:15:00
3:35 AM,76.5,72.5,87,29.75,7.0,Calm,Calm,-,N/A,,Clear,0,2013-06-30 07:35:00
3:55 AM,76.5,72.7,88,29.76,7.0,Calm,Calm,-,N/A,,Scattered Clouds,0,2013-06-30 07:55:00
4:15 AM,76.3,72.5,88,29.75,7.0,Calm,Calm,-,N/A,,Scattered Clouds,0,2013-06-30 08:15:00
4:35 AM,76.3,72.5,88,29.75,10.0,SW,3.5,-,N/A,,Clear,220,2013-06-30 08:35:00
4:55 AM,76.1,72.5,89,29.75,10.0,SW,3.5,-,N/A,,Clear,230,2013-06-30 08:55:00
5:15 AM,76.1,72.5,89,29.76,7.0,SW,3.5,-,N/A,,Clear,220,2013-06-30 09:15:00
5:35 AM,76.1,72.5,89,29.76,10.0,SW,3.5,-,N/A,,Scattered Clouds,220,2013-06-30 09:35:00
5:55 AM,76.1,72.5,89,29.76,10.0,Calm,Calm,-,N/A,,Mostly Cloudy,0,2013-06-30 09:55:00
6:15 AM,76.5,72.7,88,29.77,10.0,Calm,Calm,-,N/A,,Mostly Cloudy,0,2013-06-30 10:15:00
6:35 AM,76.5,72.7,88,29.78,10.0,Calm,Calm,-,N/A,,Mostly Cloudy,0,2013-06-30 10:35:00
6:55 AM,76.6,72.9,88,29.78,7.0,Calm,Calm,-,N/A,,Overcast,0,2013-06-30 10:55:00
7:15 AM,77.0,73.2,88,29.79,10.0,SW,4.6,-,N/A,,Overcast,230,2013-06-30 11:15:00
7:35 AM,77.5,73.4,87,29.80,10.0,Calm,Calm,-,N/A,,Overcast,0,2013-06-30 11:35:00
7:55 AM,77.5,73.4,87,29.80,10.0,Calm,Calm,-,N/A,,Overcast,0,2013-06-30 11:55:00
8:15 AM,77.9,73.0,85,29.81,10.0,WSW,5.8,-,N/A,,Overcast,240,2013-06-30 12:15:00
8:35 AM,78.3,73.2,84,29.81,10.0,SW,3.5,-,N/A,,Overcast,230,2013-06-30 12:35:00
8:55 AM,78.3,73.0,84,29.81,10.0,WSW,3.5,-,N/A,,Overcast,240,2013-06-30 12:55:00
9:15 AM,79.3,73.4,82,29.81,10.0,SSW,4.6,-,N/A,,Overcast,200,2013-06-30 13:15:00
9:35 AM,81.0,73.4,78,29.81,10.0,West,3.5,-,N/A,,Overcast,260,2013-06-30 13:35:00
9:55 AM,81.5,73.6,77,29.81,10.0,SW,4.6,-,N/A,,Overcast,220,2013-06-30 13:55:00
10:15 AM,82.0,73.0,74,29.81,10.0,SSW,5.8,-,N/A,,Mostly Cloudy,210,2013-06-30 14:15:00
10:35 AM,83.3,73.2,71,29.81,10.0,SSW,5.8,-,N/A,,Scattered Clouds,210,2013-06-30 14:35:00
10:55 AM,83.1,72.7,71,29.80,10.0,SW,5.8,-,N/A,,Mostly Cloudy,220,2013-06-30 14:55:00
11:15 AM,85.1,72.5,66,29.80,10.0,SSW,5.8,-,N/A,,Mostly Cloudy,210,2013-06-30 15:15:00
11:35 AM,84.9,72.1,65,29.80,10.0,Calm,Calm,-,N/A,,Mostly Cloudy,0,2013-06-30 15:35:00
11:55 AM,85.6,72.9,65,29.81,10.0,SW,5.8,-,N/A,,Mostly Cloudy,220,2013-06-30 15:55:00
12:15 PM,87.6,71.6,59,29.80,10.0,WSW,5.8,-,N/A,,Scattered Clouds,250,2013-06-30 16:15:00
12:35 PM,86.7,72.0,61,29.79,10.0,SW,5.8,-,N/A,,Scattered Clouds,220,2013-06-30 16:35:00
12:55 PM,87.4,72.0,60,29.79,10.0,SSW,4.6,-,N/A,,Scattered Clouds,200,2013-06-30 16:55:00
1:15 PM,88.0,72.0,59,29.78,10.0,South,3.5,-,N/A,,Scattered Clouds,190,2013-06-30 17:15:00
1:35 PM,88.2,71.2,57,29.77,10.0,Calm,Calm,-,N/A,,Clear,0,2013-06-30 17:35:00
1:55 PM,87.1,70.5,58,29.78,10.0,NW,11.5,-,N/A,,Scattered Clouds,310,2013-06-30 17:55:00
2:15 PM,74.8,70.0,85,29.79,0.5,NNW,5.8,10.4,N/A,Rain-Thunderstorm,Heavy Thunderstorms and Rain,330,2013-06-30 18:15:00
2:35 PM,75.6,70.9,85,29.80,3.0,WNW,11.5,-,N/A,Rain-Thunderstorm,Heavy Thunderstorms and Rain,300,2013-06-30 18:35:00
2:55 PM,74.3,70.7,88,29.78,1.0,Calm,Calm,-,N/A,Rain-Thunderstorm,Heavy Thunderstorms and Rain,0,2013-06-30 18:55:00
3:15 PM,75.9,71.6,86,29.78,10.0,Calm,Calm,-,N/A,Thunderstorm,Overcast,0,2013-06-30 19:15:00
3:35 PM,77.2,72.7,86,29.79,10.0,Calm,Calm,-,N/A,,Overcast,0,2013-06-30 19:35:00
3:55 PM,79.7,72.3,78,29.78,10.0,WNW,5.8,-,N/A,,Scattered Clouds,300,2013-06-30 19:55:00
4:15 PM,79.9,72.5,78,29.78,10.0,Calm,Calm,-,N/A,,Scattered Clouds,0,2013-06-30 20:15:00
4:35 PM,80.2,73.4,80,29.77,10.0,WNW,3.5,-,N/A,Thunderstorm,Mostly Cloudy,300,2013-06-30 20:35:00
4:55 PM,78.4,72.1,81,29.80,10.0,South,3.5,-,N/A,Rain-Thunderstorm,Thunderstorms and Rain,180,2013-06-30 20:55:00
5:15 PM,74.1,69.6,86,29.83,1.2,NW,9.2,23.0,N/A,Rain-Thunderstorm,Heavy Thunderstorms and Rain,310,2013-06-30 21:15:00
5:35 PM,72.5,68.7,88,29.87,1.5,SW,3.5,-,N/A,Rain-Thunderstorm,Heavy Thunderstorms and Rain,230,2013-06-30 21:35:00
5:55 PM,72.1,68.9,89,29.81,7.0,Calm,Calm,-,N/A,Rain-Thunderstorm,Light Thunderstorms and Rain,0,2013-06-30 21:55:00
6:15 PM,73.0,70.0,90,29.81,10.0,SE,4.6,-,N/A,Rain,Light Rain,140,2013-06-30 22:15:00
6:35 PM,72.5,69.3,90,29.80,10.0,SSE,4.6,-,N/A,Rain,Light Rain,150,2013-06-30 22:35:00
6:55 PM,72.5,69.6,91,29.80,10.0,Calm,Calm,-,N/A,,Clear,0,2013-06-30 22:55:00
7:15 PM,72.9,69.8,90,29.80,10.0,SSE,3.5,-,N/A,,Clear,150,2013-06-30 23:15:00
7:35 PM,73.0,70.0,90,29.83,10.0,South,3.5,-,N/A,,Scattered Clouds,190,2013-06-30 23:35:00
7:55 PM,73.2,70.2,90,29.83,10.0,Calm,Calm,-,N/A,,Mostly Cloudy,0,2013-06-30 23:55:00
8:15 PM,73.2,70.2,90,29.83,10.0,Calm,Calm,-,N/A,,Scattered Clouds,0,2013-07-01 00:15:00
8:35 PM,73.0,70.0,90,29.83,10.0,Calm,Calm,-,N/A,,Scattered Clouds,0,2013-07-01 00:35:00
8:55 PM,72.9,70.0,91,29.83,10.0,Calm,Calm,-,N/A,,Clear,0,2013-07-01 00:55:00
9:15 PM,72.9,70.0,91,29.84,10.0,Calm,Calm,-,N/A,,Mostly Cloudy,0,2013-07-01 01:15:00
9:35 PM,73.0,70.2,91,29.84,10.0,Calm,Calm,-,N/A,,Mostly Cloudy,0,2013-07-01 01:35:00
9:55 PM,73.0,70.2,91,29.84,10.0,Calm,Calm,-,N/A,,Overcast,0,2013-07-01 01:55:00
10:15 PM,73.0,70.2,91,29.84,10.0,Calm,Calm,-,N/A,,Overcast,0,2013-07-01 02:15:00
10:35 PM,73.0,70.2,91,29.85,10.0,Calm,Calm,-,N/A,Rain,Rain,0,2013-07-01 02:35:00
10:55 PM,73.4,70.5,91,29.85,4.0,Calm,Calm,-,N/A,Rain,Light Rain,0,2013-07-01 02:55:00
11:15 PM,73.4,70.5,91,29.85,4.0,Calm,Calm,-,N/A,Rain,Light Rain,0,2013-07-01 03:15:00
11:35 PM,73.4,70.5,91,29.86,10.0,Calm,Calm,-,N/A,,Overcast,0,2013-07-01 03:35:00
11:55 PM,73.4,70.7,91,29.85,10.0,Calm,Calm,-,N/A,,Overcast,0,2013-07-01 03:55:00